Flight Track Log - Related Links

Times and Time Zones

All times are in EDT time to prevent confusion due to time zone crossing. See the DAL1868 flight status page for this flight to view local times or setup timezone preferences in your user account.

Time Position Orientation Groundspeed Altitude Reporting Facility
EDT Latitude Longitude Course Direction KTS MPH feet Rate Location/Type
Mon 08:45:53 AM 33.6478 -84.3756 234° Southwest 453 521 2,700  Level Atlanta Center
Mon 08:46:53 AM 33.6728 -84.3033 67° East 344 396 5,100 2,723 Climbing Atlanta Center
Mon 08:47:52 AM 33.7461 -84.2786 16° North 287 330 8,100 2,950 Climbing Atlanta Center
Mon 08:48:53 AM 33.8086 -84.3164 333° Northwest 296 341 11,000 2,500 Climbing Atlanta Center
Mon 08:49:00 AM 33.8001 -84.5055 270° West  Level FlightAware Approximate
Mon 08:49:52 AM 33.8125 -84.4389 272° West 318 366 13,100  Level Atlanta Center
Mon 08:50:00 AM 33.7642 -84.6311 234° Southwest  Level FlightAware Approximate
Mon 08:50:52 AM 33.8119 -84.5439 270° West 334 384 14,900  Level Atlanta Center
Mon 08:51:00 AM 33.6957 -84.7426 234° Southwest  Level FlightAware Approximate
Mon 08:51:53 AM 33.7761 -84.6436 247° West 328 377 17,300  Level Atlanta Center
Mon 08:52:53 AM 33.7131 -84.7381 231° Southwest 347 399 19,000 1,866 Climbing Atlanta Center
Mon 08:53:52 AM 33.6539 -84.8300 232° Southwest 359 413 21,000 1,900 Climbing Atlanta Center
Mon 08:54:53 AM 33.6136 -84.9344 245° Southwest 365 420 22,800 1,339 Climbing Atlanta Center
Mon 08:55:53 AM 33.5772 -85.0486 249° West 371 427 23,700 1,261 Climbing Atlanta Center
Mon 08:56:52 AM 33.5325 -85.1628 245° Southwest 371 427 25,300 1,450 Climbing Atlanta Center
Mon 08:57:53 AM 33.5019 -85.2794 253° West 372 428 26,600 1,339 Climbing Atlanta Center
Mon 08:58:53 AM 33.4819 -85.4061 259° West 383 441 28,000 1,350 Climbing Atlanta Center
Mon 08:59:53 AM 33.4639 -85.5328 260° West 389 448 29,300 1,000 Climbing Atlanta Center
Mon 09:00:53 AM 33.4411 -85.6669 259° West 388 447 30,000 350 Climbing Atlanta Center
Mon 09:01:53 AM 33.4228 -85.7911 260° West 388 447 30,000  Level Atlanta Center
Mon 09:02:53 AM 33.4025 -85.8975 257° West 376 433 30,000  Level Atlanta Center
Mon 09:03:53 AM 33.3839 -86.0242 260° West 376 433 30,000  Level Atlanta Center
Mon 09:04:53 AM 33.3650 -86.1506 260° West 381 438 30,000  Level Atlanta Center
Mon 09:05:53 AM 33.3442 -86.2719 258° West 381 438 30,000  Level Atlanta Center
Mon 09:06:53 AM 33.3250 -86.3931 259° West 381 438 30,000  Level Atlanta Center
Mon 09:07:53 AM 33.3014 -86.5317 259° West 381 438 30,000  Level Atlanta Center
Mon 09:08:52 AM 33.2822 -86.6531 259° West 391 450 30,000  Level Atlanta Center
Mon 09:09:53 AM 33.2567 -86.7814 257° West 391 450 30,000  Level Atlanta Center
Mon 09:10:53 AM 33.2414 -86.8975 261° West 386 444 30,000  Level Atlanta Center
Mon 09:11:53 AM 33.2011 -87.0153 248° West 381 438 30,000  Level Atlanta Center
Mon 09:12:53 AM 33.1525 -87.1156 240° Southwest 381 438 30,000  Level Atlanta Center
Mon 09:13:53 AM 33.1017 -87.2278 242° Southwest 381 438 30,000  Level Atlanta Center
Mon 09:15:58 AM 32.9972 -87.4592 242° Southwest 379 436 30,000  Level Memphis Center
Mon 09:16:58 AM 32.9453 -87.5697 241° Southwest 379 436 30,000  Level Memphis Center
Mon 09:17:58 AM 32.8958 -87.6828 243° Southwest 384 442 30,000  Level Memphis Center
Mon 09:18:58 AM 32.8436 -87.7931 241° Southwest 384 442 30,000  Level Memphis Center
Mon 09:19:58 AM 32.7939 -87.9058 242° Southwest 389 448 30,000  Level Memphis Center
Mon 09:20:58 AM 32.7458 -88.0183 243° Southwest 389 448 30,000  Level Memphis Center
Mon 09:21:58 AM 32.6958 -88.1306 242° Southwest 389 448 30,000  Level Memphis Center
Mon 09:22:58 AM 32.6392 -88.2431 239° Southwest 401 461 30,000  Level Memphis Center
Mon 09:23:58 AM 32.5889 -88.3553 242° Southwest 401 461 30,000  Level Memphis Center
Mon 09:24:58 AM 32.5386 -88.4697 242° Southwest 401 461 30,000  Level Memphis Center
Mon 09:25:58 AM 32.4858 -88.5817 241° Southwest 396 456 30,000  Level Memphis Center
Mon 09:26:58 AM 32.4333 -88.6933 241° Southwest 396 456 30,000  Level Memphis Center
Mon 09:27:58 AM 32.3803 -88.8050 241° Southwest 396 456 30,000  Level Memphis Center
Mon 09:28:58 AM 32.3253 -88.9167 240° Southwest 396 456 30,000  Level Memphis Center
Mon 09:29:58 AM 32.2703 -89.0256 239° Southwest 396 456 30,000  Level Memphis Center
Mon 09:30:58 AM 32.2150 -89.1369 240° Southwest 396 456 30,000  Level Memphis Center
Mon 09:31:58 AM 32.1617 -89.2481 240° Southwest 396 456 30,000  Level Memphis Center
Mon 09:32:58 AM 32.1064 -89.3592 240° Southwest 396 456 30,000  Level Memphis Center
Mon 09:33:58 AM 32.0508 -89.4700 239° Southwest 396 456 30,000  Level Memphis Center
Mon 09:34:58 AM 31.9972 -89.5758 239° Southwest 396 456 30,000  Level Memphis Center
Mon 09:35:58 AM 31.9414 -89.6867 239° Southwest 396 456 30,000  Level Memphis Center
Mon 09:38:14 AM 31.8158 -89.9314 239° Southwest 395 455 30,000  Level Houston Center
Mon 09:39:16 AM 31.7619 -90.0406 240° Southwest 391 450 30,000  Level Houston Center
Mon 09:40:18 AM 31.6939 -90.1706 238° Southwest 391 450 30,000  Level Houston Center
Mon 09:41:20 AM 31.6389 -90.2797 239° Southwest 392 451 30,000  Level Houston Center
Mon 09:42:22 AM 31.5833 -90.3878 239° Southwest 391 450 30,000  Level Houston Center
Mon 09:43:24 AM 31.5272 -90.4972 239° Southwest 393 452 30,000  Level Houston Center
Mon 09:44:26 AM 31.4728 -90.6061 240° Southwest 391 450 30,000  Level Houston Center
Mon 09:45:28 AM 31.4150 -90.7150 238° Southwest 395 455 30,000  Level Houston Center
Mon 09:46:30 AM 31.3464 -90.8475 239° Southwest 400 460 30,000  Level Houston Center
Mon 09:47:32 AM 31.2897 -90.9567 239° Southwest 397 457 30,000  Level Houston Center
Mon 09:48:33 AM 31.2344 -91.0653 239° Southwest 395 455 30,000  Level Houston Center
Mon 09:49:35 AM 31.1744 -91.1767 238° Southwest 403 464 30,000  Level Houston Center
Mon 09:50:37 AM 31.1172 -91.2864 239° Southwest 399 459 30,000  Level Houston Center
Mon 09:51:39 AM 31.0469 -91.4186 238° Southwest 401 461 30,000  Level Houston Center
Mon 09:52:41 AM 30.9928 -91.5211 238° Southwest 403 464 30,000  Level Houston Center
Mon 09:53:43 AM 30.9339 -91.6328 238° Southwest 403 464 30,000  Level Houston Center
Mon 09:54:45 AM 30.8744 -91.7442 238° Southwest 403 464 30,000  Level Houston Center
Mon 09:55:47 AM 30.8031 -91.8786 238° Southwest 404 465 30,000  Level Houston Center
Mon 09:56:49 AM 30.7436 -91.9906 238° Southwest 405 466 30,000  Level Houston Center
Mon 09:57:51 AM 30.6844 -92.1028 239° Southwest 405 466 30,000  Level Houston Center
Mon 09:58:53 AM 30.6242 -92.2142 238° Southwest 405 466 30,000  Level Houston Center
Mon 09:59:55 AM 30.5647 -92.3258 238° Southwest 405 466 30,000  Level Houston Center
Mon 10:00:57 AM 30.5044 -92.4375 238° Southwest 406 467 30,000  Level Houston Center
Mon 10:01:59 AM 30.4428 -92.5519 238° Southwest 404 465 30,000  Level Houston Center
Mon 10:03:00 AM 30.3814 -92.6631 237° Southwest 407 468 30,000 -49 Level Houston Center
Mon 10:04:02 AM 30.3211 -92.7747 238° Southwest 408 470 29,900  Descending Houston Center
Mon 10:05:04 AM 30.2489 -92.9064 238° Southwest 404 465 30,000 48 Climbing Houston Center
Mon 10:06:06 AM 30.1892 -93.0183 238° Southwest 406 467 30,000  Level Houston Center
Mon 10:07:08 AM 30.1394 -93.1358 244° Southwest 412 474 30,000  Level Houston Center
Mon 10:08:10 AM 30.1281 -93.2622 264° West 396 456 30,000  Level Houston Center
Mon 10:09:12 AM 30.1200 -93.3903 266° West 398 458 30,000  Level Houston Center
Mon 10:10:14 AM 30.1097 -93.5197 265° West 399 459 30,000  Level Houston Center
Mon 10:11:16 AM 30.0994 -93.6478 265° West 397 457 30,000  Level Houston Center
Mon 10:12:17 AM 30.0894 -93.7767 265° West 401 461 30,000  Level Houston Center
Mon 10:13:19 AM 30.0792 -93.9053 265° West 401 461 30,000  Level Houston Center
Mon 10:14:21 AM 30.0664 -94.0572 264° West 399 459 30,000  Level Houston Center
Mon 10:15:23 AM 30.0564 -94.1864 265° West 401 461 30,000  Level Houston Center
Mon 10:16:25 AM 30.0464 -94.3153 265° West 403 464 30,000  Level Houston Center
Mon 10:17:27 AM 30.0356 -94.4433 264° West 402 463 30,000  Level Houston Center
Mon 10:18:29 AM 30.0253 -94.5694 265° West 402 463 30,000  Level Houston Center
Mon 10:19:31 AM 30.0139 -94.6967 264° West 402 463 30,000  Level Houston Center
Mon 10:20:33 AM 30.0011 -94.8508 265° West 403 464 30,000  Level Houston Center
Mon 10:21:35 AM 29.9897 -94.9778 264° West 403 464 30,000  Level Houston Center
Mon 10:22:37 AM 29.9794 -95.1058 265° West 404 465 30,000  Level Houston Center
Mon 10:23:39 AM 29.9681 -95.2333 264° West 405 466 30,000  Level Houston Center
Mon 10:24:41 AM 29.9506 -95.3858 262° West 405 466 30,000  Level Houston Center
Mon 10:25:43 AM 29.9231 -95.5117 256° West 407 468 30,000 -194 Level Houston Center
Mon 10:26:45 AM 29.8961 -95.6364 256° West 406 467 29,600 -726 Descending Houston Center
Mon 10:27:47 AM 29.8689 -95.7644 256° West 411 473 28,500 -1,113 Descending Houston Center
Mon 10:28:49 AM 29.8417 -95.8931 256° West 415 478 27,300 -1,258 Descending Houston Center
Mon 10:29:51 AM 29.8083 -96.0481 256° West 419 482 25,900 -1,355 Descending Houston Center
Mon 10:30:53 AM 29.7808 -96.1792 256° West 421 484 24,500 -1,584 Descending Houston Center
Mon 10:31:56 AM 29.7881 -96.3119 274° West 414 476 22,600 -2,304 Descending Houston Center
Mon 10:32:58 AM 29.7983 -96.4375 275° West 399 459 19,700 -2,806 Descending Houston Center
Mon 10:34:00 AM 29.8108 -96.5636 277° West 397 457 16,800 -2,419 Descending Houston Center
Mon 10:35:02 AM 29.8861 -96.6686 310° West 355 409 14,700 -1,984 Descending Houston Center
Mon 10:36:04 AM 29.9517 -96.7503 313° West 350 403 12,700 -1,306 Descending Houston Center
Mon 10:37:06 AM 30.0153 -96.8286 313° West 339 390 12,000 -629 Descending Houston Center
Mon 10:38:08 AM 30.0517 -96.9211 294° West 325 374 11,400 -871 Descending Houston Center
Mon 10:39:10 AM 30.0661 -97.0103 281° West 291 335 10,200 -1,161 Descending Houston Center
Mon 10:40:12 AM 30.0819 -97.1161 280° West 281 323 9,000 -576 Descending Houston Center
Mon 10:41:15 AM 30.0956 -97.2042 280° West 280 322 9,000 -480 Level Houston Center
Mon 10:42:17 AM 30.1367 -97.2794 302° West 279 321 8,000 -1,065 Descending Houston Center
Mon 10:43:19 AM 30.1828 -97.3503 307° West 278 320 6,800 -1,355 Descending Houston Center
Mon 10:44:21 AM 30.2308 -97.4211 308° West 278 320 5,200 -1,355 Descending Houston Center
Mon 10:45:23 AM 30.2792 -97.4906 309° West 279 321 4,000 -726 Descending Houston Center
Mon 10:46:25 AM 30.3381 -97.5717 310° West 277 319 3,700 -435 Descending Houston Center
Mon 10:47:27 AM 30.3944 -97.6064 332° Northwest 274 315 3,100 -290 Descending Houston Center
Mon 10:48:29 AM 30.4336 -97.6464 319° Northwest 248 285 3,100  Level Houston Center

Login

Don't have an account? Register now (free) for customized features, flight alerts, and more!